Terminal Aerodrome Forecast
Issued by NWS

Home | Current Version | Previous Version | Text Only | Print | Product List | Glossary On
Versions: 1 2 3 4 5 6 7 8 9 10 11 12 13 14 15 16 17 18 19 20 21 22 23 24 25
382
FTUS43 KDTX 270019 RRA
TAFYIP
TAF
KYIP 270019Z 2700/2724 20006KT P6SM FEW070 SCT250
     FM270300 22004KT P6SM SKC
     FM271600 25006KT P6SM SCT060=

USA.gov is the U.S. government's official web portal to all federal, state and local government web resources and services.